sensor_id;sensor_type;location;lat;lon;timestamp;pressure;altitude;pressure_sealevel;temperature;humidity
62942;BME280;49042;47.318;19.874;2023-04-25T00:01:51;99360.34;;;11.45;100.00
62942;BME280;49042;47.318;19.874;2023-04-25T00:04:52;99361.22;;;11.44;100.00
62942;BME280;49042;47.318;19.874;2023-04-25T00:07:54;99356.94;;;11.51;100.00
62942;BME280;49042;47.318;19.874;2023-04-25T00:10:57;99353.56;;;11.65;100.00
62942;BME280;49042;47.318;19.874;2023-04-25T00:13:58;99352.66;;;11.58;100.00
62942;BME280;49042;47.318;19.874;2023-04-25T00:17:03;99346.50;;;11.53;100.00
62942;BME280;49042;47.318;19.874;2023-04-25T00:20:06;99351.47;;;11.26;100.00
62942;BME280;49042;47.318;19.874;2023-04-25T00:23:10;99348.91;;;11.32;100.00
62942;BME280;49042;47.318;19.874;2023-04-25T00:26:12;99344.63;;;11.38;100.00
62942;BME280;49042;47.318;19.874;2023-04-25T00:29:14;99341.09;;;11.32;100.00
62942;BME280;49042;47.318;19.874;2023-04-25T00:32:15;99342.97;;;11.44;100.00
62942;BME280;49042;47.318;19.874;2023-04-25T00:35:17;99344.44;;;11.19;100.00
62942;BME280;49042;47.318;19.874;2023-04-25T00:38:19;99337.47;;;11.19;100.00
62942;BME280;49042;47.318;19.874;2023-04-25T00:41:20;99334.81;;;11.13;100.00
62942;BME280;49042;47.318;19.874;2023-04-25T00:44:22;99334.03;;;11.22;100.00
62942;BME280;49042;47.318;19.874;2023-04-25T00:47:25;99323.69;;;11.34;100.00
62942;BME280;49042;47.318;19.874;2023-04-25T00:50:27;99328.69;;;11.09;100.00
62942;BME280;49042;47.318;19.874;2023-04-25T00:53:29;99325.41;;;11.32;100.00
62942;BME280;49042;47.318;19.874;2023-04-25T00:56:31;99309.84;;;11.40;100.00
62942;BME280;49042;47.318;19.874;2023-04-25T00:59:33;99310.62;;;11.30;100.00
62942;BME280;49042;47.318;19.874;2023-04-25T01:02:36;99300.37;;;11.52;100.00
62942;BME280;49042;47.318;19.874;2023-04-25T01:05:40;99307.22;;;11.42;100.00
62942;BME280;49042;47.318;19.874;2023-04-25T01:08:42;99290.69;;;11.40;100.00
62942;BME280;49042;47.318;19.874;2023-04-25T01:11:44;99299.37;;;11.37;100.00
62942;BME280;49042;47.318;19.874;2023-04-25T01:14:46;99300.16;;;11.31;100.00
62942;BME280;49042;47.318;19.874;2023-04-25T01:17:48;99299.34;;;11.35;100.00
62942;BME280;49042;47.318;19.874;2023-04-25T01:20:51;99294.75;;;11.09;100.00
62942;BME280;49042;47.318;19.874;2023-04-25T01:23:54;99298.47;;;11.33;100.00
62942;BME280;49042;47.318;19.874;2023-04-25T01:26:56;99299.25;;;11.28;100.00
62942;BME280;49042;47.318;19.874;2023-04-25T01:29:59;99292.31;;;11.28;100.00
62942;BME280;49042;47.318;19.874;2023-04-25T01:33:01;99299.28;;;11.29;100.00
62942;BME280;49042;47.318;19.874;2023-04-25T01:36:06;99300.13;;;11.23;100.00
62942;BME280;49042;47.318;19.874;2023-04-25T01:39:07;99294.91;;;11.25;100.00
62942;BME280;49042;47.318;19.874;2023-04-25T01:42:09;99300.06;;;11.19;100.00
62942;BME280;49042;47.318;19.874;2023-04-25T01:45:12;99293.13;;;11.19;100.00
62942;BME280;49042;47.318;19.874;2023-04-25T01:48:14;99289.69;;;11.23;100.00
62942;BME280;49042;47.318;19.874;2023-04-25T01:51:16;99292.19;;;11.12;100.00
62942;BME280;49042;47.318;19.874;2023-04-25T01:54:18;99292.16;;;11.11;100.00
62942;BME280;49042;47.318;19.874;2023-04-25T01:57:20;99289.53;;;11.11;100.00
62942;BME280;49042;47.318;19.874;2023-04-25T02:00:22;99281.69;;;11.08;100.00
62942;BME280;49042;47.318;19.874;2023-04-25T02:03:24;99279.13;;;11.12;100.00
62942;BME280;49042;47.318;19.874;2023-04-25T02:06:26;99279.91;;;11.02;100.00
62942;BME280;49042;47.318;19.874;2023-04-25T02:09:27;99283.34;;;11.01;100.00
62942;BME280;49042;47.318;19.874;2023-04-25T02:12:30;99282.41;;;10.96;100.00
62942;BME280;49042;47.318;19.874;2023-04-25T02:15:32;99276.44;;;11.05;100.00
62942;BME280;49042;47.318;19.874;2023-04-25T02:18:34;99275.56;;;11.04;100.00
62942;BME280;49042;47.318;19.874;2023-04-25T02:21:38;99269.37;;;10.96;100.00
62942;BME280;49042;47.318;19.874;2023-04-25T02:24:40;99263.31;;;10.97;100.00
62942;BME280;49042;47.318;19.874;2023-04-25T02:27:42;99259.84;;;10.99;100.00
62942;BME280;49042;47.318;19.874;2023-04-25T02:30:44;99256.34;;;10.97;100.00
62942;BME280;49042;47.318;19.874;2023-04-25T02:33:47;99265.06;;;10.99;100.00
62942;BME280;49042;47.318;19.874;2023-04-25T02:36:49;99261.53;;;10.92;100.00
62942;BME280;49042;47.318;19.874;2023-04-25T02:39:53;99254.50;;;10.87;100.00
62942;BME280;49042;47.318;19.874;2023-04-25T02:42:55;99252.75;;;10.86;100.00
62942;BME280;49042;47.318;19.874;2023-04-25T02:45:57;99251.94;;;10.90;100.00
62942;BME280;49042;47.318;19.874;2023-04-25T02:48:58;99246.75;;;10.93;100.00
62942;BME280;49042;47.318;19.874;2023-04-25T02:52:00;99248.41;;;10.85;100.00
62942;BME280;49042;47.318;19.874;2023-04-25T02:55:02;99244.97;;;10.87;100.00
62942;BME280;49042;47.318;19.874;2023-04-25T02:58:04;99234.50;;;10.84;100.00
62942;BME280;49042;47.318;19.874;2023-04-25T03:01:06;99233.59;;;10.80;100.00
62942;BME280;49042;47.318;19.874;2023-04-25T03:04:07;99236.13;;;10.74;100.00
62942;BME280;49042;47.318;19.874;2023-04-25T03:07:09;99232.63;;;10.70;100.00
62942;BME280;49042;47.318;19.874;2023-04-25T03:10:11;99233.34;;;10.58;100.00
62942;BME280;49042;47.318;19.874;2023-04-25T03:13:13;99226.38;;;10.56;100.00
62942;BME280;49042;47.318;19.874;2023-04-25T03:16:15;99228.88;;;10.51;100.00
62942;BME280;49042;47.318;19.874;2023-04-25T03:19:17;99226.25;;;10.49;100.00
62942;BME280;49042;47.318;19.874;2023-04-25T03:22:19;99233.22;;;10.50;100.00
62942;BME280;49042;47.318;19.874;2023-04-25T03:25:21;99221.88;;;10.47;100.00
62942;BME280;49042;47.318;19.874;2023-04-25T03:28:23;99227.97;;;10.47;100.00
62942;BME280;49042;47.318;19.874;2023-04-25T03:31:25;99224.53;;;10.48;100.00
62942;BME280;49042;47.318;19.874;2023-04-25T03:34:27;99226.25;;;10.48;100.00
62942;BME280;49042;47.318;19.874;2023-04-25T03:37:29;99225.38;;;10.46;100.00
62942;BME280;49042;47.318;19.874;2023-04-25T03:40:31;99227.91;;;10.43;100.00
62942;BME280;49042;47.318;19.874;2023-04-25T03:43:32;99225.25;;;10.39;100.00
62942;BME280;49042;47.318;19.874;2023-04-25T03:46:34;99227.00;;;10.39;100.00
62942;BME280;49042;47.318;19.874;2023-04-25T03:49:36;99220.97;;;10.43;100.00
62942;BME280;49042;47.318;19.874;2023-04-25T03:52:38;99224.47;;;10.45;100.00
62942;BME280;49042;47.318;19.874;2023-04-25T03:55:40;99220.78;;;10.27;100.00
62942;BME280;49042;47.318;19.874;2023-04-25T03:58:44;99224.47;;;10.45;100.00
62942;BME280;49042;47.318;19.874;2023-04-25T04:01:46;99225.34;;;10.44;100.00
62942;BME280;49042;47.318;19.874;2023-04-25T04:04:47;99231.34;;;10.38;100.00
62942;BME280;49042;47.318;19.874;2023-04-25T04:07:50;99231.28;;;10.34;100.00
62942;BME280;49042;47.318;19.874;2023-04-25T04:10:51;99232.22;;;10.39;100.00
62942;BME280;49042;47.318;19.874;2023-04-25T04:13:53;99234.84;;;10.41;100.00
62942;BME280;49042;47.318;19.874;2023-04-25T04:16:54;99225.28;;;10.41;100.00
62942;BME280;49042;47.318;19.874;2023-04-25T04:19:56;99228.75;;;10.40;100.00
62942;BME280;49042;47.318;19.874;2023-04-25T04:22:58;99233.97;;;10.38;100.00
62942;BME280;49042;47.318;19.874;2023-04-25T04:25:59;99232.31;;;10.45;100.00
62942;BME280;49042;47.318;19.874;2023-04-25T04:29:02;99235.03;;;10.55;100.00
62942;BME280;49042;47.318;19.874;2023-04-25T04:32:04;99229.88;;;10.56;100.00
62942;BME280;49042;47.318;19.874;2023-04-25T04:35:06;99235.84;;;10.52;100.00
62942;BME280;49042;47.318;19.874;2023-04-25T04:38:08;99229.75;;;10.52;100.00
62942;BME280;49042;47.318;19.874;2023-04-25T04:41:10;99235.81;;;10.50;100.00
62942;BME280;49042;47.318;19.874;2023-04-25T04:44:12;99241.00;;;10.47;100.00
62942;BME280;49042;47.318;19.874;2023-04-25T04:47:13;99242.72;;;10.47;100.00
62942;BME280;49042;47.318;19.874;2023-04-25T04:50:15;99240.03;;;10.39;100.00
62942;BME280;49042;47.318;19.874;2023-04-25T04:53:18;99238.41;;;10.46;100.00
62942;BME280;49042;47.318;19.874;2023-04-25T04:56:20;99243.59;;;10.44;100.00
62942;BME280;49042;47.318;19.874;2023-04-25T04:59:25;99238.44;;;10.50;100.00
62942;BME280;49042;47.318;19.874;2023-04-25T05:02:26;99235.06;;;10.56;100.00
62942;BME280;49042;47.318;19.874;2023-04-25T05:05:29;99233.31;;;10.57;100.00
62942;BME280;49042;47.318;19.874;2023-04-25T05:08:31;99230.72;;;10.55;100.00
62942;BME280;49042;47.318;19.874;2023-04-25T05:11:32;99230.50;;;10.41;100.00
62942;BME280;49042;47.318;19.874;2023-04-25T05:14:34;99233.13;;;10.43;100.00
62942;BME280;49042;47.318;19.874;2023-04-25T05:17:36;99230.50;;;10.43;100.00
62942;BME280;49042;47.318;19.874;2023-04-25T05:20:38;99231.41;;;10.42;100.00
62942;BME280;49042;47.318;19.874;2023-04-25T05:23:39;99229.63;;;10.41;100.00
62942;BME280;49042;47.318;19.874;2023-04-25T05:26:41;99239.25;;;10.45;100.00
62942;BME280;49042;47.318;19.874;2023-04-25T05:29:43;99233.16;;;10.44;100.00
62942;BME280;49042;47.318;19.874;2023-04-25T05:32:45;99234.91;;;10.45;100.00
62942;BME280;49042;47.318;19.874;2023-04-25T05:35:48;99243.62;;;10.47;100.00
62942;BME280;49042;47.318;19.874;2023-04-25T05:38:50;99241.03;;;10.49;100.00
62942;BME280;49042;47.318;19.874;2023-04-25T05:41:52;99244.50;;;10.49;100.00
62942;BME280;49042;47.318;19.874;2023-04-25T05:44:54;99251.44;;;10.47;100.00
62942;BME280;49042;47.318;19.874;2023-04-25T05:47:56;99243.53;;;10.41;100.00
62942;BME280;49042;47.318;19.874;2023-04-25T05:50:57;99247.00;;;10.40;100.00
62942;BME280;49042;47.318;19.874;2023-04-25T05:53:59;99248.78;;;10.44;100.00
62942;BME280;49042;47.318;19.874;2023-04-25T05:57:01;99251.34;;;10.39;100.00
62942;BME280;49042;47.318;19.874;2023-04-25T06:00:04;99255.72;;;10.42;100.00
62942;BME280;49042;47.318;19.874;2023-04-25T06:03:10;99255.88;;;10.53;100.00
62942;BME280;49042;47.318;19.874;2023-04-25T06:06:13;99259.31;;;10.52;100.00
62942;BME280;49042;47.318;19.874;2023-04-25T06:09:14;99256.75;;;10.54;100.00
62942;BME280;49042;47.318;19.874;2023-04-25T06:12:16;99259.25;;;10.47;100.00
62942;BME280;49042;47.318;19.874;2023-04-25T06:15:18;99259.13;;;10.35;100.00
62942;BME280;49042;47.318;19.874;2023-04-25T06:18:22;99261.56;;;10.25;100.00
62942;BME280;49042;47.318;19.874;2023-04-25T06:21:24;99263.41;;;10.31;100.00
62942;BME280;49042;47.318;19.874;2023-04-25T06:24:27;99260.72;;;10.26;100.00
62942;BME280;49042;47.318;19.874;2023-04-25T06:27:29;99267.56;;;10.18;100.00
62942;BME280;49042;47.318;19.874;2023-04-25T06:30:31;99267.63;;;10.23;100.00
62942;BME280;49042;47.318;19.874;2023-04-25T06:33:32;99272.69;;;10.12;100.00
62942;BME280;49042;47.318;19.874;2023-04-25T06:36:35;99272.69;;;10.12;100.00
62942;BME280;49042;47.318;19.874;2023-04-25T06:39:36;99269.97;;;10.04;100.00
62942;BME280;49042;47.318;19.874;2023-04-25T06:42:41;99282.19;;;10.06;100.00
62942;BME280;49042;47.318;19.874;2023-04-25T06:45:43;99270.91;;;10.07;100.00
62942;BME280;49042;47.318;19.874;2023-04-25T06:48:48;99273.34;;;9.95;100.00
62942;BME280;49042;47.318;19.874;2023-04-25T06:51:50;99277.63;;;9.91;100.00
62942;BME280;49042;47.318;19.874;2023-04-25T06:54:51;99281.16;;;9.96;100.00
62942;BME280;49042;47.318;19.874;2023-04-25T06:57:53;99282.91;;;9.96;100.00
62942;BME280;49042;47.318;19.874;2023-04-25T07:00:56;99286.53;;;10.06;100.00
62942;BME280;49042;47.318;19.874;2023-04-25T07:03:58;99286.38;;;9.96;100.00
62942;BME280;49042;47.318;19.874;2023-04-25T07:07:00;99289.88;;;9.99;100.00
62942;BME280;49042;47.318;19.874;2023-04-25T07:10:04;99287.31;;;10.02;100.00
62942;BME280;49042;47.318;19.874;2023-04-25T07:13:06;99290.78;;;10.01;100.00
62942;BME280;49042;47.318;19.874;2023-04-25T07:16:08;99288.28;;;10.09;100.00
62942;BME280;49042;47.318;19.874;2023-04-25T07:19:10;99286.44;;;10.01;100.00
62942;BME280;49042;47.318;19.874;2023-04-25T07:22:11;99289.75;;;9.91;100.00
62942;BME280;49042;47.318;19.874;2023-04-25T07:25:13;99292.28;;;9.84;100.00
62942;BME280;49042;47.318;19.874;2023-04-25T07:28:15;99291.31;;;9.78;100.00
62942;BME280;49042;47.318;19.874;2023-04-25T07:31:20;99294.75;;;9.77;100.00
62942;BME280;49042;47.318;19.874;2023-04-25T07:34:21;99293.84;;;9.73;100.00
62942;BME280;49042;47.318;19.874;2023-04-25T07:37:23;99288.75;;;9.81;100.00
62942;BME280;49042;47.318;19.874;2023-04-25T07:40:25;99288.84;;;9.87;100.00
62942;BME280;49042;47.318;19.874;2023-04-25T07:43:27;99299.19;;;9.82;100.00
62942;BME280;49042;47.318;19.874;2023-04-25T07:46:28;99289.75;;;9.89;100.00
62942;BME280;49042;47.318;19.874;2023-04-25T07:49:30;99290.72;;;9.96;100.00
62942;BME280;49042;47.318;19.874;2023-04-25T07:52:32;99291.47;;;9.89;100.00
62942;BME280;49042;47.318;19.874;2023-04-25T07:55:33;99295.91;;;9.93;100.00
62942;BME280;49042;47.318;19.874;2023-04-25T07:58:35;99288.06;;;9.93;100.00
62942;BME280;49042;47.318;19.874;2023-04-25T08:01:37;99296.53;;;9.79;100.00
62942;BME280;49042;47.318;19.874;2023-04-25T08:04:39;99296.47;;;9.74;100.00
62942;BME280;49042;47.318;19.874;2023-04-25T08:07:41;99294.94;;;9.88;100.00
62942;BME280;49042;47.318;19.874;2023-04-25T08:10:43;99289.59;;;9.78;100.00
62942;BME280;49042;47.318;19.874;2023-04-25T08:13:44;99293.69;;;9.63;100.00
62942;BME280;49042;47.318;19.874;2023-04-25T08:16:46;99291.22;;;9.71;100.00
62942;BME280;49042;47.318;19.874;2023-04-25T08:19:49;99289.41;;;9.67;100.00
62942;BME280;49042;47.318;19.874;2023-04-25T08:22:50;99299.84;;;9.69;100.00
62942;BME280;49042;47.318;19.874;2023-04-25T08:25:52;99306.53;;;10.07;100.00
62942;BME280;49042;47.318;19.874;2023-04-25T08:28:54;99293.66;;;10.20;100.00
62942;BME280;49042;47.318;19.874;2023-04-25T08:31:55;99299.25;;;10.49;100.00
62942;BME280;49042;47.318;19.874;2023-04-25T08:34:58;99297.97;;;10.86;100.00
62942;BME280;49042;47.318;19.874;2023-04-25T08:37:59;99304.53;;;11.32;100.00
62942;BME280;49042;47.318;19.874;2023-04-25T08:41:02;99299.03;;;12.07;100.00
62942;BME280;49042;47.318;19.874;2023-04-25T08:44:05;99305.41;;;12.50;100.00
62942;BME280;49042;47.318;19.874;2023-04-25T08:47:07;99304.66;;;12.88;100.00
62942;BME280;49042;47.318;19.874;2023-04-25T08:50:09;99304.72;;;13.10;100.00
62942;BME280;49042;47.318;19.874;2023-04-25T08:53:12;99301.25;;;13.36;100.00
62942;BME280;49042;47.318;19.874;2023-04-25T08:56:20;99305.63;;;14.20;93.25
62942;BME280;49042;47.318;19.874;2023-04-25T08:59:24;99300.63;;;15.48;84.52
62942;BME280;49042;47.318;19.874;2023-04-25T09:02:27;99303.38;;;17.05;75.70
62942;BME280;49042;47.318;19.874;2023-04-25T09:05:29;99303.66;;;17.48;67.64
62942;BME280;49042;47.318;19.874;2023-04-25T09:08:31;99311.62;;;18.90;62.93
62942;BME280;49042;47.318;19.874;2023-04-25T09:11:34;99310.09;;;17.84;60.29
62942;BME280;49042;47.318;19.874;2023-04-25T09:14:37;99299.44;;;17.38;62.62
62942;BME280;49042;47.318;19.874;2023-04-25T09:17:41;99313.06;;;16.30;64.45
62942;BME280;49042;47.318;19.874;2023-04-25T09:20:43;99307.50;;;15.68;69.80
62942;BME280;49042;47.318;19.874;2023-04-25T09:24:02;99312.38;;;16.14;66.37
62942;BME280;49042;47.318;19.874;2023-04-25T09:27:06;99315.63;;;16.38;63.17
62942;BME280;49042;47.318;19.874;2023-04-25T09:30:08;99305.31;;;16.90;63.73
62942;BME280;49042;47.318;19.874;2023-04-25T09:33:11;99312.53;;;16.77;62.83
62942;BME280;49042;47.318;19.874;2023-04-25T09:36:12;99301.13;;;14.57;68.67
62942;BME280;49042;47.318;19.874;2023-04-25T09:39:14;99303.06;;;13.78;78.97
62942;BME280;49042;47.318;19.874;2023-04-25T09:42:24;99306.50;;;13.37;80.27
62942;BME280;49042;47.318;19.874;2023-04-25T09:45:29;99304.78;;;13.95;81.83
62942;BME280;49042;47.318;19.874;2023-04-25T09:48:32;99303.94;;;13.96;79.05
62942;BME280;49042;47.318;19.874;2023-04-25T09:51:34;99304.81;;;13.66;84.33
62942;BME280;49042;47.318;19.874;2023-04-25T09:54:36;99304.75;;;13.17;81.66
62942;BME280;49042;47.318;19.874;2023-04-25T09:57:37;99296.03;;;13.31;82.36
62942;BME280;49042;47.318;19.874;2023-04-25T10:00:42;99294.28;;;13.99;79.00
62942;BME280;49042;47.318;19.874;2023-04-25T10:03:45;99293.34;;;14.37;79.31
62942;BME280;49042;47.318;19.874;2023-04-25T10:06:50;99301.19;;;14.44;73.28
62942;BME280;49042;47.318;19.874;2023-04-25T10:10:04;99298.59;;;14.33;72.10
62942;BME280;49042;47.318;19.874;2023-04-25T10:13:06;99294.94;;;14.71;73.75
62942;BME280;49042;47.318;19.874;2023-04-25T10:16:07;99307.16;;;14.91;72.66
62942;BME280;49042;47.318;19.874;2023-04-25T10:19:10;99300.37;;;14.20;71.01
62942;BME280;49042;47.318;19.874;2023-04-25T10:22:28;99301.31;;;13.83;73.51
62942;BME280;49042;47.318;19.874;2023-04-25T10:25:32;99296.91;;;13.46;76.48
62942;BME280;49042;47.318;19.874;2023-04-25T10:29:11;99302.16;;;13.47;78.75
62942;BME280;49042;47.318;19.874;2023-04-25T10:32:13;99296.03;;;13.34;75.82
62942;BME280;49042;47.318;19.874;2023-04-25T10:35:18;99293.44;;;13.69;76.71
62942;BME280;49042;47.318;19.874;2023-04-25T10:38:20;99294.28;;;13.54;78.18
62942;BME280;49042;47.318;19.874;2023-04-25T10:41:21;99289.94;;;13.42;79.49
62942;BME280;49042;47.318;19.874;2023-04-25T10:44:31;99284.56;;;14.39;76.42
62942;BME280;49042;47.318;19.874;2023-04-25T10:47:36;99302.91;;;14.42;72.38
62942;BME280;49042;47.318;19.874;2023-04-25T10:50:38;99300.25;;;14.63;70.35
62942;BME280;49042;47.318;19.874;2023-04-25T10:56:58;99299.03;;;15.30;68.52
62942;BME280;49042;47.318;19.874;2023-04-25T11:00:07;99306.44;;;14.41;70.61
62942;BME280;49042;47.318;19.874;2023-04-25T11:03:16;99313.50;;;14.09;71.32
62942;BME280;49042;47.318;19.874;2023-04-25T11:06:55;99315.22;;;14.31;70.58
62942;BME280;49042;47.318;19.874;2023-04-25T11:10:07;99319.66;;;13.83;70.64
62942;BME280;49042;47.318;19.874;2023-04-25T11:13:09;99320.47;;;13.36;72.79
62942;BME280;49042;47.318;19.874;2023-04-25T11:16:11;99326.59;;;13.42;76.88
62942;BME280;49042;47.318;19.874;2023-04-25T11:19:19;99333.59;;;13.49;74.16
62942;BME280;49042;47.318;19.874;2023-04-25T11:22:22;99344.03;;;13.33;76.77
62942;BME280;49042;47.318;19.874;2023-04-25T11:25:24;99343.97;;;13.11;76.85
62942;BME280;49042;47.318;19.874;2023-04-25T11:28:27;99343.94;;;12.97;78.84
62942;BME280;49042;47.318;19.874;2023-04-25T11:31:29;99345.59;;;12.76;79.60
62942;BME280;49042;47.318;19.874;2023-04-25T11:34:32;99350.84;;;12.71;79.42
62942;BME280;49042;47.318;19.874;2023-04-25T11:37:39;99363.78;;;12.49;81.02
62942;BME280;49042;47.318;19.874;2023-04-25T11:40:41;99361.22;;;12.56;83.19
62942;BME280;49042;47.318;19.874;2023-04-25T11:43:43;99363.78;;;12.51;79.62
62942;BME280;49042;47.318;19.874;2023-04-25T11:46:45;99361.13;;;12.40;79.21
62942;BME280;49042;47.318;19.874;2023-04-25T11:49:48;99376.03;;;12.53;79.89
62942;BME280;49042;47.318;19.874;2023-04-25T11:52:50;99366.44;;;12.54;79.18
62942;BME280;49042;47.318;19.874;2023-04-25T11:55:52;99362.28;;;13.08;78.96
62942;BME280;49042;47.318;19.874;2023-04-25T12:01:57;99354.50;;;13.39;77.59
62942;BME280;49042;47.318;19.874;2023-04-25T12:04:59;99368.50;;;13.54;77.58
62942;BME280;49042;47.318;19.874;2023-04-25T12:08:21;99369.37;;;13.52;73.77
62942;BME280;49042;47.318;19.874;2023-04-25T12:11:23;99374.59;;;13.28;74.13
62942;BME280;49042;47.318;19.874;2023-04-25T12:14:29;99377.22;;;13.39;72.46
62942;BME280;49042;47.318;19.874;2023-04-25T12:17:31;99374.63;;;13.55;73.22
62942;BME280;49042;47.318;19.874;2023-04-25T12:20:33;99375.53;;;14.07;72.02
62942;BME280;49042;47.318;19.874;2023-04-25T12:23:38;99380.78;;;14.32;67.91
62942;BME280;49042;47.318;19.874;2023-04-25T12:29:54;99385.19;;;13.91;66.28
62942;BME280;49042;47.318;19.874;2023-04-25T12:32:57;99394.66;;;13.29;67.21
62942;BME280;49042;47.318;19.874;2023-04-25T12:35:59;99393.78;;;13.30;67.29
62942;BME280;49042;47.318;19.874;2023-04-25T12:39:02;99387.62;;;13.22;67.27
62942;BME280;49042;47.318;19.874;2023-04-25T12:42:05;99391.13;;;13.16;67.58
62942;BME280;49042;47.318;19.874;2023-04-25T12:45:10;99384.22;;;13.46;66.29
62942;BME280;49042;47.318;19.874;2023-04-25T12:48:12;99386.91;;;14.22;62.53
62942;BME280;49042;47.318;19.874;2023-04-25T12:51:13;99381.59;;;14.56;63.42
62942;BME280;49042;47.318;19.874;2023-04-25T12:54:15;99385.19;;;14.13;62.27
62942;BME280;49042;47.318;19.874;2023-04-25T12:57:17;99390.28;;;14.79;59.44
62942;BME280;49042;47.318;19.874;2023-04-25T13:00:19;99388.44;;;15.09;58.31
62942;BME280;49042;47.318;19.874;2023-04-25T13:03:21;99391.97;;;15.02;59.26
62942;BME280;49042;47.318;19.874;2023-04-25T13:06:24;99390.31;;;14.60;60.54
62942;BME280;49042;47.318;19.874;2023-04-25T13:09:25;99393.88;;;14.48;61.13
62942;BME280;49042;47.318;19.874;2023-04-25T13:12:27;99393.91;;;14.07;65.20
62942;BME280;49042;47.318;19.874;2023-04-25T13:15:30;99380.78;;;14.07;65.63
62942;BME280;49042;47.318;19.874;2023-04-25T13:18:32;99388.66;;;14.29;63.63
62942;BME280;49042;47.318;19.874;2023-04-25T13:21:33;99387.81;;;13.85;65.24
62942;BME280;49042;47.318;19.874;2023-04-25T13:24:35;99379.91;;;14.15;65.37
62942;BME280;49042;47.318;19.874;2023-04-25T13:27:37;99386.03;;;14.34;65.17
62942;BME280;49042;47.318;19.874;2023-04-25T13:30:39;99385.09;;;14.57;64.40
62942;BME280;49042;47.318;19.874;2023-04-25T13:33:42;99380.81;;;14.12;65.34
62942;BME280;49042;47.318;19.874;2023-04-25T13:36:44;99383.41;;;14.10;64.96
62942;BME280;49042;47.318;19.874;2023-04-25T13:39:47;99384.28;;;14.30;64.47
62942;BME280;49042;47.318;19.874;2023-04-25T13:42:48;99386.69;;;15.05;63.12
62942;BME280;49042;47.318;19.874;2023-04-25T13:45:50;99387.31;;;15.58;59.83
62942;BME280;49042;47.318;19.874;2023-04-25T13:48:52;99388.38;;;16.42;55.38
62942;BME280;49042;47.318;19.874;2023-04-25T13:52:03;99398.78;;;16.55;53.99
62942;BME280;49042;47.318;19.874;2023-04-25T13:55:05;99389.88;;;15.64;54.06
62942;BME280;49042;47.318;19.874;2023-04-25T13:58:08;99387.94;;;15.90;52.07
62942;BME280;49042;47.318;19.874;2023-04-25T14:01:11;99396.97;;;16.58;50.28
62942;BME280;49042;47.318;19.874;2023-04-25T14:04:13;99397.00;;;17.33;47.25
62942;BME280;49042;47.318;19.874;2023-04-25T14:07:15;99388.28;;;16.52;47.79
62942;BME280;49042;47.318;19.874;2023-04-25T14:10:17;99400.53;;;15.42;50.18
62942;BME280;49042;47.318;19.874;2023-04-25T14:13:19;99388.97;;;15.70;51.75
62942;BME280;49042;47.318;19.874;2023-04-25T14:16:21;99390.03;;;15.37;51.49
62942;BME280;49042;47.318;19.874;2023-04-25T14:19:24;99391.84;;;15.29;52.44
62942;BME280;49042;47.318;19.874;2023-04-25T14:22:26;99383.19;;;15.11;53.83
62942;BME280;49042;47.318;19.874;2023-04-25T14:25:29;99388.22;;;15.49;52.80
62942;BME280;49042;47.318;19.874;2023-04-25T14:28:31;99386.47;;;15.48;52.37
62942;BME280;49042;47.318;19.874;2023-04-25T14:31:33;99383.78;;;15.59;53.52
62942;BME280;49042;47.318;19.874;2023-04-25T14:34:35;99387.34;;;15.50;51.57
62942;BME280;49042;47.318;19.874;2023-04-25T14:37:36;99385.34;;;15.83;52.31
62942;BME280;49042;47.318;19.874;2023-04-25T14:40:38;99372.97;;;16.00;53.13
62942;BME280;49042;47.318;19.874;2023-04-25T14:43:40;99380.12;;;15.80;52.04
62942;BME280;49042;47.318;19.874;2023-04-25T14:46:42;99382.81;;;15.69;51.95
62942;BME280;49042;47.318;19.874;2023-04-25T14:49:44;99372.22;;;15.82;53.35
62942;BME280;49042;47.318;19.874;2023-04-25T14:52:52;99382.06;;;15.55;54.01
62942;BME280;49042;47.318;19.874;2023-04-25T14:55:54;99386.13;;;15.95;51.64
62942;BME280;49042;47.318;19.874;2023-04-25T14:58:55;99382.53;;;16.05;51.91
62942;BME280;49042;47.318;19.874;2023-04-25T15:01:58;99376.47;;;16.00;51.73
62942;BME280;49042;47.318;19.874;2023-04-25T15:05:00;99377.22;;;16.15;52.01
62942;BME280;49042;47.318;19.874;2023-04-25T15:08:02;99371.16;;;16.05;52.03
62942;BME280;49042;47.318;19.874;2023-04-25T15:11:04;99375.44;;;16.22;51.53
62942;BME280;49042;47.318;19.874;2023-04-25T15:14:06;99376.97;;;16.42;52.10
62942;BME280;49042;47.318;19.874;2023-04-25T15:17:07;99377.28;;;16.05;52.72
62942;BME280;49042;47.318;19.874;2023-04-25T15:20:11;99379.91;;;16.07;50.64
62942;BME280;49042;47.318;19.874;2023-04-25T15:23:13;99379.12;;;15.95;51.44
62942;BME280;49042;47.318;19.874;2023-04-25T15:26:14;99375.69;;;15.89;51.41
62942;BME280;49042;47.318;19.874;2023-04-25T15:29:16;99377.72;;;15.49;54.69
62942;BME280;49042;47.318;19.874;2023-04-25T15:32:18;99377.59;;;15.66;52.93
62942;BME280;49042;47.318;19.874;2023-04-25T15:35:20;99377.75;;;15.43;53.41
62942;BME280;49042;47.318;19.874;2023-04-25T15:38:22;99375.75;;;15.79;53.86
62942;BME280;49042;47.318;19.874;2023-04-25T15:41:24;99381.88;;;15.80;53.34
62942;BME280;49042;47.318;19.874;2023-04-25T15:44:26;99385.53;;;15.55;53.63
62942;BME280;49042;47.318;19.874;2023-04-25T15:47:28;99384.03;;;15.18;56.30
62942;BME280;49042;47.318;19.874;2023-04-25T15:50:30;99377.94;;;15.08;55.47
62942;BME280;49042;47.318;19.874;2023-04-25T15:53:31;99377.94;;;15.09;56.43
62942;BME280;49042;47.318;19.874;2023-04-25T15:56:33;99389.38;;;14.94;56.54
62942;BME280;49042;47.318;19.874;2023-04-25T15:59:35;99385.88;;;14.92;56.43